首页
METAR-TAF:

METAR-TAF

机场 :

庫拉索國際機場

库拉索, 荷属安的列斯

纬度: 12-12N, 经度: 068-58W, 海拔: 9米

当前天气观测

该预报发布于15分钟前的23:00 UTC
风速12节,风向
温度 27°C
湿度 79%
气压 1013 hPa
能见度10公里或以上

METAR: TNCC 232300Z AUTO 09012KT 9999 NSC 27/23 Q1013 NOSIG

时间: 19:15 (23:15 UTC)

预报

该预报发布于7小时和15分钟前的16:00 UTC
预报有效从23日的 18点(UTC)到 24日的 18点(UTC)
风速15节,风向东转东南,有时为27节阵风
能见度10公里或以上
散云层高于2000英尺
几率 30% :
短暂存在
从 24日的 06点(UTC)到 24日的 16点(UTC)
能見度: 7000
多云层高于1500英尺
小阵雨

TAF: TNCC 231600Z 2318/2418 11015G27KT 9999 SCT020 PROB30 TEMPO 2406/2416 7000 -SHRA BKN015

超过4000个机场的气象观测和天气预报(METAR&TAF报告)。

可查询的气象台以黄色和红色小点在地图上表示。

将鼠标移到小点上方,可查看气象台名称。

然后点击查看天气观测和预报。

如需切换地图:点击带黑十字的绿色按钮放大地图;点击带横线的绿色按钮缩小地图;或者点击绿色箭头查看邻近地区的地图。


METAR-TAF: